Time;durP1;ratioP1;P1;durP2;ratioP2;P2;SDS_P1;SDS_P2;PMS_P1;PMS_P2;Temp;Humidity;BMP_temperature;BMP_pressure;BME280_temperature;BME280_humidity;BME280_pressure;Samples;Min_cycle;Max_cycle;Signal;HPM_P1;HPM_P2
2024/01/29 00:01:44;;;;;;;9.70;6.23;;;-0.40;1.00;;;;;;4971832;28;20270;-82
2024/01/29 00:04:10;;;;;;;7.73;5.70;;;-0.50;1.00;;;;;;4972063;28;20556;-82
2024/01/29 00:06:36;;;;;;;6.80;5.27;;;-0.50;1.00;;;;;;4972128;28;20172;-82
2024/01/29 00:09:01;;;;;;;8.63;5.50;;;-0.50;1.00;;;;;;4971948;28;20278;-83
2024/01/29 00:11:27;;;;;;;7.27;4.97;;;-0.50;1.00;;;;;;4988857;28;20525;-83
2024/01/29 00:13:52;;;;;;;6.07;4.50;;;-0.50;1.00;;;;;;4989565;28;20186;-84
2024/01/29 00:16:18;;;;;;;5.33;4.10;;;-0.40;1.00;;;;;;4972148;28;20183;-82
2024/01/29 00:18:44;;;;;;;5.77;4.20;;;-0.30;1.00;;;;;;4989236;28;20230;-82
2024/01/29 00:21:09;;;;;;;6.07;4.13;;;-0.30;99.90;;;;;;4971444;28;20302;-82
2024/01/29 00:23:35;;;;;;;6.40;3.80;;;-0.30;99.90;;;;;;4989498;28;20180;-82
2024/01/29 00:26:00;;;;;;;6.00;3.83;;;-0.30;99.90;;;;;;4972113;28;20183;-82
2024/01/29 00:28:26;;;;;;;5.70;3.60;;;-0.20;99.90;;;;;;4971924;28;20192;-82
2024/01/29 00:30:51;;;;;;;6.20;3.83;;;-0.30;99.90;;;;;;4988755;28;20272;-82
2024/01/29 00:33:18;;;;;;;5.37;3.70;;;-0.30;99.90;;;;;;4973216;28;20275;-83
2024/01/29 00:35:44;;;;;;;5.33;3.37;;;-0.20;99.90;;;;;;4992793;28;20195;-82
2024/01/29 00:38:10;;;;;;;5.23;3.70;;;-0.40;99.90;;;;;;4975096;28;20227;-82
2024/01/29 00:40:37;;;;;;;3.93;3.07;;;-0.30;30.00;;;;;;4974781;28;20684;-82
2024/01/29 00:43:03;;;;;;;4.10;3.00;;;-0.30;1.00;;;;;;4975104;28;20551;-82
2024/01/29 00:45:28;;;;;;;4.47;3.00;;;-0.30;99.90;;;;;;4991540;28;20186;-82
2024/01/29 00:47:54;;;;;;;3.27;2.60;;;-0.20;99.90;;;;;;4974742;28;20257;-82
2024/01/29 00:50:20;;;;;;;4.33;2.90;;;-0.20;1.00;;;;;;5039493;28;20250;-82
2024/01/29 00:52:45;;;;;;;5.60;3.17;;;-0.10;99.90;;;;;;4971789;28;20195;-82
2024/01/29 00:55:12;;;;;;;4.17;2.67;;;-0.20;1.00;;;;;;4991091;28;20201;-83
2024/01/29 00:57:37;;;;;;;2.93;2.40;;;-0.20;1.00;;;;;;4992307;28;20219;-82
2024/01/29 01:00:06;;;;;;;2.87;2.20;;;-0.20;1.00;;;;;;4991912;28;20188;-83
2024/01/29 01:02:32;;;;;;;3.77;2.63;;;-0.30;99.90;;;;;;4974408;28;20168;-82
2024/01/29 01:04:57;;;;;;;2.80;2.47;;;-0.20;1.00;;;;;;4974666;28;20536;-82
2024/01/29 01:07:23;;;;;;;4.47;2.60;;;-0.20;1.00;;;;;;4992126;28;20195;-82
2024/01/29 01:09:49;;;;;;;2.93;2.40;;;-0.10;1.00;;;;;;4991978;28;20188;-82
2024/01/29 01:12:14;;;;;;;3.70;2.30;;;-0.20;1.00;;;;;;4991585;28;20558;-83
2024/01/29 01:14:40;;;;;;;4.37;2.77;;;-0.20;99.90;;;;;;4991715;28;20566;-82
2024/01/29 01:17:05;;;;;;;3.73;3.17;;;-0.30;99.90;;;;;;4974282;28;20663;-82
2024/01/29 01:19:31;;;;;;;3.83;3.00;;;-0.20;1.00;;;;;;4974237;28;20199;-82
2024/01/29 01:21:56;;;;;;;4.70;3.10;;;-0.30;46.70;;;;;;4974378;28;20179;-82
2024/01/29 01:24:22;;;;;;;4.03;2.50;;;-0.30;58.90;;;;;;4974497;28;20183;-82
2024/01/29 01:26:47;;;;;;;3.87;2.83;;;-0.40;1.00;;;;;;4991705;28;20182;-82
2024/01/29 01:29:13;;;;;;;3.40;2.70;;;-0.50;99.90;;;;;;4974145;28;20249;-82
2024/01/29 01:31:39;;;;;;;4.13;2.80;;;-0.60;99.90;;;;;;4973744;28;20610;-83
2024/01/29 01:34:04;;;;;;;5.37;3.03;;;-0.60;1.00;;;;;;4991374;28;20188;-82
2024/01/29 01:36:30;;;;;;;3.70;3.10;;;-0.60;1.00;;;;;;4991778;28;20181;-81
2024/01/29 01:38:55;;;;;;;5.70;3.27;;;-0.50;1.00;;;;;;4973864;28;20602;-82
2024/01/29 01:41:21;;;;;;;4.70;3.20;;;-0.50;99.90;;;;;;4973549;28;20245;-83
2024/01/29 01:43:46;;;;;;;4.43;3.43;;;-0.60;1.00;;;;;;4991045;28;20176;-82
2024/01/29 01:46:23;;;;;;;5.30;3.70;;;-0.60;1.00;;;;;;4973573;28;20172;-82
2024/01/29 01:48:50;;;;;;;5.37;3.20;;;-0.70;99.90;;;;;;4991271;28;20188;-82
2024/01/29 01:51:17;;;;;;;5.53;3.90;;;-0.80;1.00;;;;;;4973522;28;20551;-82
2024/01/29 01:53:44;;;;;;;6.43;4.47;;;-0.80;18.40;;;;;;4991480;28;20229;-82
2024/01/29 01:56:11;;;;;;;6.20;4.60;;;-0.90;1.00;;;;;;4991113;28;20189;-82
2024/01/29 01:58:37;;;;;;;6.73;4.23;;;-0.80;1.00;;;;;;4991073;28;20199;-81
2024/01/29 02:01:03;;;;;;;6.23;4.40;;;-0.80;1.00;;;;;;4973255;28;20208;-82
2024/01/29 02:03:28;;;;;;;6.17;4.17;;;-0.90;1.00;;;;;;4973957;28;20171;-82
2024/01/29 02:05:55;;;;;;;5.70;3.87;;;-0.90;1.00;;;;;;4990252;28;20272;-82
2024/01/29 02:08:21;;;;;;;5.00;3.60;;;-0.80;1.00;;;;;;4991199;28;20215;-82
2024/01/29 02:10:48;;;;;;;5.17;3.90;;;-0.80;1.00;;;;;;4975307;28;20183;-82
2024/01/29 02:13:14;;;;;;;3.87;3.00;;;-0.70;99.90;;;;;;5013817;28;20184;-82
2024/01/29 02:15:40;;;;;;;3.93;2.80;;;-0.80;99.90;;;;;;4991224;28;20179;-82
2024/01/29 02:18:06;;;;;;;3.20;2.40;;;-0.80;1.00;;;;;;4973763;28;20760;-82
2024/01/29 02:20:32;;;;;;;2.13;1.60;;;-0.90;1.00;;;;;;4990524;28;20345;-82
2024/01/29 02:22:58;;;;;;;2.30;1.70;;;-0.80;1.00;;;;;;4990834;28;20188;-82
2024/01/29 02:25:23;;;;;;;2.10;1.70;;;-0.70;1.00;;;;;;4973376;28;20179;-82
2024/01/29 02:27:49;;;;;;;1.77;1.50;;;-0.70;99.90;;;;;;4990628;28;20207;-82
2024/01/29 02:30:14;;;;;;;1.83;1.40;;;-0.60;99.90;;;;;;4973334;28;20554;-83
2024/01/29 02:32:40;;;;;;;2.20;1.60;;;-0.60;99.90;;;;;;4973277;28;20180;-82
2024/01/29 02:35:06;;;;;;;1.93;1.33;;;-0.60;99.90;;;;;;4990675;28;20691;-82
2024/01/29 02:37:33;;;;;;;2.63;1.50;;;-0.50;99.90;;;;;;4990569;28;20226;-82
2024/01/29 02:39:58;;;;;;;1.73;1.43;;;-0.40;99.90;;;;;;4972983;28;20202;-82
2024/01/29 02:42:24;;;;;;;1.97;1.40;;;-0.50;1.00;;;;;;4972968;28;20164;-82
2024/01/29 02:44:49;;;;;;;1.70;1.50;;;-0.50;99.90;;;;;;4990688;28;20229;-82
2024/01/29 02:47:15;;;;;;;2.20;1.40;;;-0.50;99.90;;;;;;4990516;28;20275;-84
2024/01/29 02:49:43;;;;;;;1.47;1.30;;;-0.50;99.90;;;;;;4990370;28;20184;-82
2024/01/29 02:52:09;;;;;;;2.17;1.70;;;-0.50;99.90;;;;;;4990301;28;20324;-82
2024/01/29 02:54:35;;;;;;;1.67;1.50;;;-0.50;1.00;;;;;;4990664;28;20225;-82
2024/01/29 02:57:00;;;;;;;2.57;1.70;;;-0.50;24.20;;;;;;4972468;28;20183;-81
2024/01/29 02:59:26;;;;;;;2.20;1.40;;;-0.50;99.90;;;;;;4990169;28;20218;-83
2024/01/29 03:01:52;;;;;;;2.07;1.40;;;-0.50;99.90;;;;;;4972698;28;20222;-82
2024/01/29 03:04:18;;;;;;;4.03;1.70;;;-0.60;1.00;;;;;;4990284;28;20183;-82
2024/01/29 03:06:43;;;;;;;3.53;1.90;;;-0.60;1.00;;;;;;4990581;28;20172;-83
2024/01/29 03:09:10;;;;;;;2.60;1.90;;;-0.50;1.00;;;;;;4990467;28;20330;-82
2024/01/29 03:11:35;;;;;;;2.93;2.00;;;-0.50;99.90;;;;;;4989469;28;20321;-83
2024/01/29 03:14:01;;;;;;;3.13;1.90;;;-0.50;1.00;;;;;;4990356;28;20183;-82
2024/01/29 03:16:26;;;;;;;2.97;1.80;;;-0.50;9.10;;;;;;4972959;28;20638;-81
2024/01/29 03:18:52;;;;;;;1.97;1.63;;;-0.50;1.00;;;;;;4989889;28;20213;-82
2024/01/29 03:21:18;;;;;;;2.07;1.80;;;-0.50;1.00;;;;;;4989593;28;20293;-83
2024/01/29 03:23:43;;;;;;;2.67;1.80;;;-0.50;1.00;;;;;;4990116;28;20207;-82
2024/01/29 03:26:09;;;;;;;2.40;1.70;;;-0.50;1.00;;;;;;4972671;28;20184;-82
2024/01/29 03:28:34;;;;;;;2.57;1.80;;;-0.60;99.90;;;;;;4990031;28;20217;-82
2024/01/29 03:31:00;;;;;;;2.60;1.70;;;-0.70;99.90;;;;;;4972253;28;20568;-83
2024/01/29 03:33:26;;;;;;;2.03;1.70;;;-0.80;98.40;;;;;;4990033;28;20183;-82
2024/01/29 03:35:51;;;;;;;3.90;2.10;;;-0.70;99.90;;;;;;4990088;28;20227;-82
2024/01/29 03:38:17;;;;;;;1.83;1.67;;;-0.80;1.00;;;;;;4989905;28;20196;-82
2024/01/29 03:40:43;;;;;;;3.03;1.90;;;-0.80;1.00;;;;;;4988891;28;20278;-83
2024/01/29 03:43:08;;;;;;;2.63;1.87;;;-0.70;99.90;;;;;;4972389;28;20175;-82
2024/01/29 03:45:35;;;;;;;2.87;1.90;;;-0.70;99.90;;;;;;4990023;28;20168;-82
2024/01/29 03:48:00;;;;;;;2.93;2.10;;;-0.70;99.90;;;;;;4989768;28;20199;-80
2024/01/29 03:50:26;;;;;;;2.67;1.90;;;-0.60;99.90;;;;;;4972097;28;20605;-82
2024/01/29 03:52:51;;;;;;;2.30;1.90;;;-0.60;99.90;;;;;;4972363;28;20204;-82
2024/01/29 03:55:17;;;;;;;1.90;1.60;;;-0.60;1.00;;;;;;4989427;28;20182;-82
2024/01/29 03:57:43;;;;;;;2.90;1.97;;;-0.60;99.90;;;;;;4989865;28;20207;-82
2024/01/29 04:00:09;;;;;;;2.53;1.90;;;-0.60;99.90;;;;;;4972302;28;20195;-81
2024/01/29 04:02:34;;;;;;;3.20;2.00;;;-0.60;99.90;;;;;;4989000;28;20211;-82
2024/01/29 04:05:00;;;;;;;3.77;2.17;;;-0.60;1.00;;;;;;4989728;28;20183;-82
2024/01/29 04:07:27;;;;;;;1.97;1.80;;;-0.60;99.90;;;;;;4971996;28;20644;-82
2024/01/29 04:09:52;;;;;;;2.60;1.90;;;-0.60;99.90;;;;;;4992391;28;20622;-82
2024/01/29 04:12:18;;;;;;;2.60;1.80;;;-0.60;1.00;;;;;;4975043;28;20747;-82
2024/01/29 04:14:43;;;;;;;2.23;1.80;;;-0.70;1.00;;;;;;4992938;28;20277;-82
2024/01/29 04:17:10;;;;;;;2.63;1.63;;;-0.70;30.00;;;;;;4975420;28;20176;-82
2024/01/29 04:19:36;;;;;;;2.50;1.80;;;-0.70;99.90;;;;;;4992657;28;20199;-83
2024/01/29 04:22:02;;;;;;;2.27;1.90;;;-0.60;1.00;;;;;;4992372;28;20258;-82
2024/01/29 04:24:28;;;;;;;1.83;1.70;;;-0.70;1.00;;;;;;4975322;28;20570;-82
2024/01/29 04:26:55;;;;;;;2.10;1.73;;;-0.70;1.00;;;;;;4975208;28;20267;-82
2024/01/29 04:29:20;;;;;;;2.50;1.80;;;-0.70;1.00;;;;;;4974911;28;20199;-82
2024/01/29 04:31:46;;;;;;;1.77;1.53;;;-0.70;1.00;;;;;;4981956;28;20672;-82
2024/01/29 04:34:11;;;;;;;3.30;1.53;;;-0.70;1.00;;;;;;4974070;28;20187;-82
2024/01/29 04:36:37;;;;;;;1.83;1.60;;;-0.60;1.00;;;;;;4992375;28;20286;-82
2024/01/29 04:39:03;;;;;;;2.67;1.80;;;-0.60;1.00;;;;;;4975011;28;20196;-82
2024/01/29 04:41:29;;;;;;;3.10;1.80;;;-0.60;1.00;;;;;;4974692;28;20718;-82
2024/01/29 04:43:54;;;;;;;3.47;1.77;;;-0.60;1.00;;;;;;4992516;28;20195;-82
2024/01/29 04:46:20;;;;;;;2.03;1.57;;;-0.60;1.00;;;;;;4992273;28;20183;-82
2024/01/29 04:48:45;;;;;;;2.00;1.40;;;-0.50;1.00;;;;;;4974978;28;20195;-82
2024/01/29 04:51:11;;;;;;;2.00;1.60;;;-0.60;1.00;;;;;;4991878;28;20729;-82
2024/01/29 04:53:38;;;;;;;2.37;1.70;;;-0.60;1.00;;;;;;4992764;28;20180;-82
2024/01/29 04:56:04;;;;;;;2.60;1.70;;;-0.70;1.00;;;;;;4974818;28;20179;-81
2024/01/29 04:58:30;;;;;;;2.23;1.70;;;-0.60;1.00;;;;;;4992281;28;20244;-82
2024/01/29 05:00:56;;;;;;;1.47;1.30;;;-0.50;1.00;;;;;;4974253;28;20308;-82
2024/01/29 05:03:22;;;;;;;1.73;1.60;;;-0.50;1.00;;;;;;4992463;28;20184;-82
2024/01/29 05:05:47;;;;;;;3.20;1.80;;;-0.40;1.00;;;;;;4992198;28;20176;-82
2024/01/29 05:08:13;;;;;;;1.73;1.40;;;-0.50;99.90;;;;;;4992572;28;20211;-82
2024/01/29 05:10:39;;;;;;;3.10;1.40;;;-0.60;1.00;;;;;;4991768;28;20269;-82
2024/01/29 05:13:05;;;;;;;3.63;1.73;;;-0.60;1.00;;;;;;4974933;28;20176;-82
2024/01/29 05:15:30;;;;;;;2.00;1.53;;;-0.60;1.00;;;;;;4974858;28;20233;-82
2024/01/29 05:17:56;;;;;;;2.40;1.60;;;-0.60;1.00;;;;;;4975093;28;20210;-82
2024/01/29 05:20:22;;;;;;;2.77;1.80;;;-0.60;99.90;;;;;;4973738;28;20214;-82
2024/01/29 05:22:47;;;;;;;1.87;1.67;;;-0.60;1.00;;;;;;4992043;28;20218;-82
2024/01/29 05:25:13;;;;;;;2.67;2.20;;;-0.70;1.00;;;;;;4974855;28;20203;-82
2024/01/29 05:27:38;;;;;;;4.77;2.30;;;-0.60;99.90;;;;;;4974219;28;20227;-82
2024/01/29 05:30:05;;;;;;;2.90;1.70;;;-0.70;99.90;;;;;;4991641;28;20176;-82
2024/01/29 05:32:31;;;;;;;1.93;1.50;;;-0.70;99.90;;;;;;4991325;28;20210;-82
2024/01/29 05:34:57;;;;;;;2.10;1.50;;;-0.70;1.00;;;;;;4991745;28;20180;-82
2024/01/29 05:37:22;;;;;;;1.93;1.50;;;-0.80;1.00;;;;;;4991312;28;20184;-82
2024/01/29 05:39:48;;;;;;;2.20;1.60;;;-0.80;1.00;;;;;;4974100;28;20203;-82
2024/01/29 05:42:14;;;;;;;2.57;1.70;;;-0.70;1.00;;;;;;4991336;28;20321;-83
2024/01/29 05:44:39;;;;;;;2.17;1.50;;;-0.80;1.00;;;;;;4991541;28;20179;-80
2024/01/29 05:47:05;;;;;;;2.37;2.00;;;-0.90;1.00;;;;;;4974185;28;20182;-82
2024/01/29 05:49:30;;;;;;;2.40;2.00;;;-0.90;1.00;;;;;;4973817;28;20643;-82
2024/01/29 05:51:56;;;;;;;2.80;1.80;;;-1.00;1.00;;;;;;4991142;28;20736;-83
2024/01/29 05:54:21;;;;;;;2.57;1.73;;;-0.90;1.00;;;;;;4991600;28;20172;-82
2024/01/29 05:56:47;;;;;;;2.20;1.90;;;-0.80;1.00;;;;;;4991312;28;20164;-82
2024/01/29 05:59:13;;;;;;;2.13;1.40;;;-0.90;1.00;;;;;;4973754;28;20202;-82
2024/01/29 06:01:39;;;;;;;3.67;1.77;;;-0.80;1.00;;;;;;4990910;28;20257;-82
2024/01/29 06:04:04;;;;;;;2.63;1.80;;;-0.90;1.00;;;;;;4991281;28;20168;-83
2024/01/29 06:06:30;;;;;;;2.70;1.80;;;-0.90;99.90;;;;;;4991596;28;20175;-82
2024/01/29 06:08:56;;;;;;;2.27;1.90;;;-1.00;99.90;;;;;;4991027;28;20223;-82
2024/01/29 06:11:21;;;;;;;2.80;2.00;;;-1.10;1.00;;;;;;4990982;28;20195;-82
2024/01/29 06:13:47;;;;;;;2.83;1.70;;;-1.00;1.00;;;;;;4990916;28;20217;-82
2024/01/29 06:16:20;;;;;;;1.97;1.70;;;-1.00;1.00;;;;;;4991297;28;20207;-82
2024/01/29 06:18:46;;;;;;;2.80;1.63;;;-1.00;1.00;;;;;;4973910;28;20219;-82
2024/01/29 06:21:11;;;;;;;2.00;1.50;;;-1.00;1.00;;;;;;4990158;28;20726;-82
2024/01/29 06:23:37;;;;;;;2.37;1.50;;;-1.10;1.00;;;;;;4990934;28;20203;-82
2024/01/29 06:26:03;;;;;;;2.37;1.50;;;-1.10;1.00;;;;;;4991110;28;20195;-82
2024/01/29 06:28:29;;;;;;;1.83;1.50;;;-1.10;1.00;;;;;;4973619;28;20702;-82
2024/01/29 06:30:55;;;;;;;2.70;1.60;;;-1.10;1.00;;;;;;4989575;28;20172;-82
2024/01/29 06:33:21;;;;;;;2.57;1.90;;;-1.10;1.00;;;;;;4990599;28;20186;-82
2024/01/29 06:35:46;;;;;;;2.57;2.00;;;-1.00;1.00;;;;;;4991069;28;20198;-82
2024/01/29 06:38:12;;;;;;;3.87;2.80;;;-1.00;1.00;;;;;;4990834;28;20577;-82
2024/01/29 06:40:37;;;;;;;3.37;2.00;;;-1.00;1.00;;;;;;4990657;28;20228;-82
2024/01/29 06:43:03;;;;;;;2.97;1.93;;;-0.90;1.00;;;;;;4973750;28;20236;-82
2024/01/29 06:45:30;;;;;;;2.80;1.80;;;-0.90;1.00;;;;;;4991358;28;20175;-82
2024/01/29 06:47:57;;;;;;;1.70;1.40;;;-1.00;1.00;;;;;;4973801;28;20242;-82
2024/01/29 06:50:23;;;;;;;2.70;1.63;;;-1.00;1.00;;;;;;4990309;28;20667;-79
2024/01/29 06:52:49;;;;;;;2.90;1.80;;;-0.90;1.00;;;;;;4974459;28;20187;-79
2024/01/29 06:55:17;;;;;;;2.50;1.70;;;-0.20;99.90;;;;;;4992173;28;20186;-80
2024/01/29 06:57:43;;;;;;;2.60;1.50;;;0.90;99.90;;;;;;4973931;28;20195;-81
2024/01/29 07:00:09;;;;;;;2.57;1.50;;;1.60;99.90;;;;;;4992117;28;20196;-80
2024/01/29 07:02:35;;;;;;;3.13;1.87;;;1.60;99.90;;;;;;4990940;28;20184;-80
2024/01/29 07:05:01;;;;;;;2.03;1.40;;;1.60;1.00;;;;;;4975044;28;20217;-82
2024/01/29 07:07:27;;;;;;;1.83;1.63;;;1.70;99.90;;;;;;4990870;28;20185;-82
2024/01/29 07:09:54;;;;;;;1.60;1.33;;;1.20;1.00;;;;;;4990541;28;20186;-84
2024/01/29 07:12:20;;;;;;;2.40;1.60;;;0.80;99.90;;;;;;4973978;28;20560;-80
2024/01/29 07:14:45;;;;;;;2.80;1.60;;;0.50;99.90;;;;;;4974636;28;20176;-81
2024/01/29 07:17:11;;;;;;;1.53;1.30;;;0.30;1.00;;;;;;4994141;28;20660;-79
2024/01/29 07:19:37;;;;;;;1.63;1.50;;;0.10;68.50;;;;;;4993395;28;20220;-80
2024/01/29 07:22:04;;;;;;;3.50;1.80;;;-0.10;1.00;;;;;;4993648;28;20180;-81
2024/01/29 07:24:31;;;;;;;2.47;1.63;;;-0.20;99.90;;;;;;4993322;28;20181;-79
2024/01/29 07:26:58;;;;;;;1.50;1.40;;;-0.30;1.00;;;;;;4976979;28;20554;-80
2024/01/29 07:29:26;;;;;;;2.30;1.70;;;-0.40;99.90;;;;;;4975467;28;20270;-80
2024/01/29 07:31:53;;;;;;;2.50;2.00;;;-0.40;99.90;;;;;;4991310;28;20164;-79
2024/01/29 07:34:19;;;;;;;2.20;1.80;;;-0.30;1.00;;;;;;4992447;28;20176;-79
2024/01/29 07:36:44;;;;;;;2.70;2.00;;;-0.30;1.00;;;;;;4974559;28;20179;-80
2024/01/29 07:39:12;;;;;;;3.13;2.47;;;-0.30;1.00;;;;;;4974688;28;20590;-79
2024/01/29 07:41:41;;;;;;;4.07;2.60;;;-0.30;1.00;;;;;;4975575;28;20569;-80
2024/01/29 07:44:07;;;;;;;3.23;2.10;;;-0.30;1.00;;;;;;4977776;28;20183;-81
2024/01/29 07:46:33;;;;;;;3.07;2.23;;;-0.30;1.00;;;;;;4995582;28;20176;-81
2024/01/29 07:49:01;;;;;;;3.93;2.50;;;-0.30;1.00;;;;;;4994191;28;20190;-80
2024/01/29 07:51:27;;;;;;;3.37;2.20;;;-0.30;1.00;;;;;;4994023;28;20313;-81
2024/01/29 07:53:53;;;;;;;2.17;1.97;;;-0.20;1.00;;;;;;4994609;28;20656;-81
2024/01/29 07:56:19;;;;;;;3.47;2.00;;;-0.20;1.00;;;;;;4976890;28;20596;-81
2024/01/29 07:58:44;;;;;;;2.20;1.90;;;-0.20;1.00;;;;;;4994325;28;20207;-81
2024/01/29 08:01:10;;;;;;;3.30;2.00;;;-0.20;1.00;;;;;;4992863;28;20218;-81
2024/01/29 08:03:35;;;;;;;3.57;2.10;;;-0.20;1.00;;;;;;4976126;28;20537;-81
2024/01/29 08:06:01;;;;;;;3.07;1.90;;;-0.10;1.00;;;;;;4976241;28;20175;-80
2024/01/29 08:08:28;;;;;;;2.77;1.80;;;0.00;1.00;;;;;;4976274;28;20215;-80
2024/01/29 08:10:57;;;;;;;3.27;2.20;;;0.00;1.00;;;;;;4993652;28;20183;-81
2024/01/29 08:13:23;;;;;;;2.33;1.70;;;0.00;1.00;;;;;;4993578;28;20187;-81
2024/01/29 08:15:49;;;;;;;3.33;2.03;;;0.00;1.00;;;;;;4993618;28;20278;-80
2024/01/29 08:18:16;;;;;;;3.07;1.80;;;0.10;1.00;;;;;;4993546;28;20677;-80
2024/01/29 08:20:41;;;;;;;3.00;1.80;;;0.10;1.00;;;;;;4993149;28;20731;-81
2024/01/29 08:23:07;;;;;;;4.20;2.50;;;0.20;1.00;;;;;;4975765;28;20204;-81
2024/01/29 08:25:32;;;;;;;3.37;2.07;;;0.20;99.00;;;;;;4976097;28;20222;-81
2024/01/29 08:27:58;;;;;;;3.03;1.90;;;0.20;53.70;;;;;;4976105;28;20192;-81
2024/01/29 08:30:24;;;;;;;3.20;2.30;;;0.30;1.00;;;;;;4975651;28;20192;-81
2024/01/29 08:32:49;;;;;;;3.30;2.30;;;0.40;1.00;;;;;;4993791;28;20674;-82
2024/01/29 08:35:15;;;;;;;4.77;2.10;;;0.50;1.00;;;;;;4993301;28;20172;-81
2024/01/29 08:37:41;;;;;;;3.87;2.77;;;0.60;1.00;;;;;;4993259;28;20202;-81
2024/01/29 08:40:07;;;;;;;3.83;2.23;;;0.70;29.80;;;;;;4975357;28;20235;-81
2024/01/29 08:42:33;;;;;;;4.70;2.90;;;0.80;26.10;;;;;;4992368;28;20601;-79
2024/01/29 08:45:00;;;;;;;6.20;3.40;;;0.90;3.60;;;;;;4992879;28;20175;-81
2024/01/29 08:47:25;;;;;;;5.63;3.63;;;1.10;1.00;;;;;;4976200;28;20186;-81
2024/01/29 08:49:51;;;;;;;2.67;2.47;;;1.20;1.00;;;;;;4976340;28;20275;-81
2024/01/29 08:52:17;;;;;;;3.93;2.90;;;1.30;1.00;;;;;;4993754;28;20193;-80
2024/01/29 08:54:44;;;;;;;3.23;2.40;;;1.50;99.90;;;;;;4975620;28;20178;-81
2024/01/29 08:57:09;;;;;;;3.80;2.70;;;1.50;14.00;;;;;;4976281;28;20234;-81
2024/01/29 08:59:35;;;;;;;3.53;2.70;;;1.70;99.90;;;;;;4993474;28;20203;-81
2024/01/29 09:02:00;;;;;;;3.37;2.50;;;1.80;1.00;;;;;;4993800;28;20186;-81
2024/01/29 09:04:26;;;;;;;4.07;2.50;;;1.90;1.00;;;;;;4994186;28;20681;-81
2024/01/29 09:06:52;;;;;;;5.03;2.67;;;2.10;99.90;;;;;;4994544;28;20184;-81
2024/01/29 09:09:18;;;;;;;4.07;2.77;;;2.20;99.90;;;;;;4976295;28;20206;-79
2024/01/29 09:11:44;;;;;;;3.70;2.63;;;2.40;41.40;;;;;;4994680;28;20265;-80
2024/01/29 09:14:09;;;;;;;4.83;2.90;;;2.60;1.00;;;;;;4995014;28;20208;-78
2024/01/29 09:16:35;;;;;;;3.23;2.57;;;2.80;99.90;;;;;;4994537;28;20213;-79
2024/01/29 09:19:00;;;;;;;4.30;2.97;;;3.00;1.00;;;;;;4976699;28;20205;-81
2024/01/29 09:21:30;;;;;;;4.67;3.23;;;3.20;99.90;;;;;;4976391;28;20215;-81
2024/01/29 09:23:56;;;;;;;4.50;2.80;;;3.30;1.00;;;;;;4994506;28;20174;-81
2024/01/29 09:26:22;;;;;;;3.63;3.00;;;3.40;1.00;;;;;;4976080;28;20208;-80
2024/01/29 09:28:47;;;;;;;5.97;3.63;;;3.60;99.90;;;;;;4990567;28;20287;-83
2024/01/29 09:31:13;;;;;;;5.03;3.50;;;3.70;1.00;;;;;;4990782;28;20176;-85
2024/01/29 09:33:38;;;;;;;5.43;3.27;;;3.90;99.90;;;;;;4992275;28;20559;-81
2024/01/29 09:36:04;;;;;;;4.20;3.20;;;4.10;99.90;;;;;;4991466;28;20195;-81
2024/01/29 09:38:30;;;;;;;4.80;3.57;;;4.20;99.90;;;;;;4967548;28;20205;-81
2024/01/29 09:40:57;;;;;;;4.37;3.17;;;4.40;31.40;;;;;;4991511;28;20210;-81
2024/01/29 09:43:26;;;;;;;6.80;4.23;;;4.50;1.00;;;;;;4980310;28;20180;-82
2024/01/29 09:45:52;;;;;;;8.70;4.90;;;4.60;1.00;;;;;;4988232;28;20176;-81
2024/01/29 09:48:18;;;;;;;9.93;5.30;;;4.80;99.90;;;;;;4992705;28;20275;-81
2024/01/29 09:50:47;;;;;;;9.40;5.30;;;4.90;1.00;;;;;;4991906;28;20183;-81
2024/01/29 09:53:18;;;;;;;9.33;5.33;;;5.10;99.90;;;;;;4974455;28;20204;-82
2024/01/29 09:55:43;;;;;;;8.20;5.20;;;5.30;1.00;;;;;;4991893;28;20212;-81
2024/01/29 09:58:09;;;;;;;6.73;4.60;;;5.40;1.00;;;;;;4991794;28;20205;-81
2024/01/29 10:00:35;;;;;;;6.30;3.90;;;5.60;1.00;;;;;;4991247;28;20301;-83
2024/01/29 10:03:05;;;;;;;7.03;4.10;;;5.80;99.90;;;;;;4972546;28;20191;-81
2024/01/29 10:05:31;;;;;;;4.63;3.97;;;6.00;99.90;;;;;;4973171;28;20264;-81
2024/01/29 10:07:58;;;;;;;5.97;4.00;;;6.20;1.00;;;;;;4991883;28;20281;-81
2024/01/29 10:10:26;;;;;;;4.27;3.43;;;6.40;1.00;;;;;;4990959;28;20234;-82
2024/01/29 10:13:03;;;;;;;4.33;3.20;;;6.60;1.00;;;;;;4991796;28;20214;-81
2024/01/29 10:15:30;;;;;;;5.17;3.10;;;6.80;1.00;;;;;;4991902;28;20253;-81
2024/01/29 10:17:55;;;;;;;7.50;3.40;;;6.90;99.90;;;;;;4991538;28;20206;-83
2024/01/29 10:20:21;;;;;;;6.37;3.10;;;7.00;99.90;;;;;;4974164;28;20207;-81
2024/01/29 10:22:48;;;;;;;5.27;3.57;;;7.10;1.00;;;;;;4991773;28;20232;-81
2024/01/29 10:25:16;;;;;;;4.10;3.20;;;7.10;1.00;;;;;;4991716;28;20247;-81
2024/01/29 10:38:13;;;;;;;3.90;3.17;;;7.10;1.00;;;;;;5131239;27;20547;-84
2024/01/29 10:40:41;;;;;;;4.70;3.40;;;7.70;99.90;;;;;;5110377;28;20171;-82
2024/01/29 10:43:15;;;;;;;3.97;3.23;;;7.90;99.90;;;;;;5110391;28;20178;-82
2024/01/29 10:45:45;;;;;;;5.20;3.67;;;8.10;1.00;;;;;;5109015;28;20203;-81
2024/01/29 10:48:23;;;;;;;5.93;3.27;;;8.30;1.00;;;;;;5110307;28;20238;-80
2024/01/29 10:53:20;;;;;;;3.50;3.20;;;8.70;1.00;;;;;;5129406;28;20200;-81
2024/01/29 10:55:51;;;;;;;3.87;3.23;;;8.80;99.90;;;;;;5113344;28;20651;-82
2024/01/29 10:58:18;;;;;;;3.97;2.90;;;8.90;99.90;;;;;;5130712;28;20161;-81
2024/01/29 11:00:44;;;;;;;4.73;3.07;;;9.00;87.50;;;;;;5111804;28;20176;-81
2024/01/29 11:03:12;;;;;;;3.43;3.00;;;8.90;99.90;;;;;;5129229;28;20288;-80
2024/01/29 11:05:40;;;;;;;3.37;2.97;;;9.00;76.20;;;;;;5129544;28;20236;-80
2024/01/29 11:08:11;;;;;;;3.23;2.90;;;9.00;64.50;;;;;;5129094;28;20174;-77
2024/01/29 11:10:37;;;;;;;5.80;2.90;;;9.20;1.00;;;;;;5130614;28;20181;-79
2024/01/29 11:13:04;;;;;;;4.50;3.00;;;9.40;1.00;;;;;;5129334;28;20285;-78
2024/01/29 11:15:30;;;;;;;3.60;2.90;;;9.60;60.40;;;;;;5129680;28;20175;-79
2024/01/29 11:17:57;;;;;;;4.03;3.27;;;9.80;1.00;;;;;;5129578;28;20200;-79
2024/01/29 11:20:23;;;;;;;5.73;3.30;;;9.90;1.00;;;;;;5130870;27;20179;-82
2024/01/29 11:22:59;;;;;;;4.73;3.10;;;9.90;1.00;;;;;;5129750;28;20195;-80
2024/01/29 11:25:29;;;;;;;4.67;3.17;;;9.90;1.00;;;;;;5128649;28;20207;-80
2024/01/29 11:27:56;;;;;;;5.17;3.10;;;10.00;1.00;;;;;;5129780;27;20168;-80
2024/01/29 11:30:26;;;;;;;4.00;2.90;;;10.10;1.00;;;;;;5129331;27;20649;-81
2024/01/29 11:33:10;;;;;;;4.77;3.30;;;10.20;1.00;;;;;;5128633;28;20191;-82
2024/01/29 11:35:36;;;;;;;4.03;3.03;;;10.20;1.00;;;;;;5118824;28;20167;-79
2024/01/29 11:38:07;;;;;;;5.47;3.07;;;10.30;1.00;;;;;;5104112;28;20535;-82
2024/01/29 11:40:33;;;;;;;15.10;7.07;;;10.30;1.00;;;;;;5096564;28;20167;-79
2024/01/29 11:43:19;;;;;;;9.73;5.37;;;10.40;1.00;;;;;;5096174;28;20185;-83
2024/01/29 11:45:47;;;;;;;4.57;3.10;;;10.50;1.00;;;;;;5094672;28;20257;-82
2024/01/29 11:48:15;;;;;;;3.83;3.40;;;10.30;1.00;;;;;;5093818;28;20175;-83
2024/01/29 11:50:45;;;;;;;4.73;3.50;;;10.00;1.00;;;;;;5094343;28;20222;-84
2024/01/29 11:53:13;;;;;;;4.53;3.40;;;9.70;99.90;;;;;;5094803;28;20286;-82
2024/01/29 11:55:40;;;;;;;4.13;3.40;;;9.60;99.90;;;;;;5093489;28;20165;-83
2024/01/29 11:58:20;;;;;;;4.33;3.10;;;9.80;91.70;;;;;;5094951;28;20165;-82
2024/01/29 12:00:47;;;;;;;3.40;2.70;;;10.20;1.00;;;;;;5094983;28;20218;-82
2024/01/29 12:03:23;;;;;;;3.77;3.27;;;10.60;1.00;;;;;;5095139;28;20169;-82
2024/01/29 12:05:51;;;;;;;4.97;3.20;;;10.70;99.90;;;;;;5093873;28;20222;-82
2024/01/29 12:08:17;;;;;;;3.27;2.97;;;11.00;99.90;;;;;;5093991;28;20250;-84
2024/01/29 12:10:44;;;;;;;4.43;3.30;;;10.90;99.90;;;;;;5093541;28;20226;-82
2024/01/29 12:13:13;;;;;;;3.57;3.10;;;11.00;99.90;;;;;;5095265;28;20192;-82
2024/01/29 12:15:39;;;;;;;4.53;3.37;;;11.40;99.90;;;;;;5095032;28;20190;-82
2024/01/29 12:18:09;;;;;;;3.57;3.27;;;11.40;99.90;;;;;;5095081;28;20251;-82
2024/01/29 12:20:36;;;;;;;4.27;2.90;;;11.80;99.90;;;;;;5093056;28;20542;-81
2024/01/29 12:23:02;;;;;;;5.00;3.40;;;12.00;99.90;;;;;;5093791;28;20192;-82
2024/01/29 12:25:28;;;;;;;5.47;3.37;;;11.80;99.90;;;;;;5094864;28;20180;-81
2024/01/29 12:28:03;;;;;;;5.90;3.07;;;11.80;99.90;;;;;;5093824;28;20551;-82
2024/01/29 12:30:28;;;;;;;4.17;3.20;;;11.80;99.90;;;;;;5092916;28;20221;-81
2024/01/29 12:32:54;;;;;;;4.10;3.47;;;11.70;99.90;;;;;;5093576;28;20196;-81
2024/01/29 12:35:31;;;;;;;3.77;3.23;;;11.90;99.90;;;;;;5094820;28;20169;-81
2024/01/29 12:38:08;;;;;;;4.40;3.40;;;12.10;99.90;;;;;;5093802;28;20201;-82
2024/01/29 12:40:34;;;;;;;3.30;3.00;;;12.00;99.90;;;;;;5093253;28;20183;-83
2024/01/29 12:43:01;;;;;;;5.10;3.37;;;11.80;99.90;;;;;;5093117;28;20649;-80
2024/01/29 12:45:26;;;;;;;4.60;3.37;;;11.70;99.90;;;;;;5094843;28;20180;-80
2024/01/29 12:48:04;;;;;;;3.93;3.37;;;11.40;99.90;;;;;;5095461;28;20180;-81
2024/01/29 12:50:29;;;;;;;3.50;3.03;;;11.40;99.90;;;;;;5094357;28;20176;-82
2024/01/29 12:52:55;;;;;;;4.13;3.10;;;11.30;99.90;;;;;;5095596;28;20299;-80
2024/01/29 12:55:21;;;;;;;3.97;2.73;;;11.40;99.90;;;;;;5094610;28;20169;-81
2024/01/29 12:57:46;;;;;;;6.97;5.60;;;11.50;99.90;;;;;;5095113;28;20217;-81
2024/01/29 13:00:12;;;;;;;5.10;4.23;;;11.50;99.90;;;;;;5095209;28;20176;-81
2024/01/29 13:02:38;;;;;;;7.60;4.90;;;11.50;99.90;;;;;;5093758;28;20770;-81
2024/01/29 13:05:04;;;;;;;5.37;3.70;;;11.60;99.90;;;;;;5094059;28;20172;-81